Lewiston, ID

11:26 PM PDT on June 01, 2015 (GMT -0700)
Lewiston-Nez Perce County | | Change Station
CLOSE
Current Station
Airport
Location: Lewiston,
Elevation: 1437 ft
Nearby Weather Stations

Elev 1437 ft 46.37 °N, 117.02 °W | Updated 30 minutes ago

Mostly Cloudy
Mostly Cloudy
60 °F
Feels Like 60 °F
N
8
Wind Variable Wind from SE

Today
High -- | Low -- °F
--% Chance of Precip.
Yesterday
High -- | Low -- °F
Precip. -- in
4:59 AM 8:32 PM
Full, 100% visible
Pressure 29.85 in
Visibility 10.0 miles
Clouds Few 8000 ft
Dew Point 55 °F
Humidity 83%
Rainfall 0.83 in
Snow Depth Not available.
UV 0 out of 12
Pollen 7.10 out of 12
Air Quality Not available.
Flu Activity No Activity
METAR KLWS 020556Z AUTO 13007KT 10SM FEW080 16/13 A2987 RMK AO2 SLP107 60083 T01560128 10244 20150 53024

More Conditions Fewer Conditions

Pressure 29.85 in
Visibility 10.0 miles
Clouds Few 8000 ft
Dew Point 55 °F
Humidity 83%
Rainfall 0.83 in
Snow Depth Not available.
UV 0 out of 12
Pollen 7.10 out of 12
Air Quality Not available.
Flu Activity No Activity
METAR KLWS 020556Z AUTO 13007KT 10SM FEW080 16/13 A2987 RMK AO2 SLP107 60083 T01560128 10244 20150 53024

More Conditions Fewer Conditions

10-Day Weather Forecast

Almanac

Astronomy

Jun. 01, 2015 Rise Set
Actual Time
Civil Twilight
Nautical Twilight
Astronomical Twilight
Moon
Length of Visible Light
Length of Day
Tomorrow will be .
, % of the Moon is Illuminated

Today's Extremes

State Highs State Lows

Community

WunderPhotos

Upload Photos

1,825,923 photos uploaded!

WunderBlogs® & News

Nearby

Air Quality

  Air Quality AQ Index Pollutant
Not available.

Snow Depth

Station Depth Elevation

Earthquake Activity

City Distance Mag. Time & Date
Minimum magnitude displayed is 2.5.

Coastal Water Temperatures

Place Temperature

Stations

Nearby Weather Stations

Station Location Temp. Windchill Dew Point Humidity Wind Precip. Elev Updated Type